createdAt,value
2017-11-25T00:00:23.236Z,1.52
2017-11-25T00:02:50.424Z,1.60
2017-11-25T00:05:16.874Z,1.70
2017-11-25T00:07:43.299Z,1.98
2017-11-25T00:10:10.534Z,1.67
2017-11-25T00:12:37.690Z,1.83
2017-11-25T00:15:04.129Z,1.92
2017-11-25T00:17:30.690Z,1.00
2017-11-25T00:19:57.147Z,1.75
2017-11-25T00:22:23.573Z,1.80
2017-11-25T00:24:50.754Z,1.70
2017-11-25T00:27:17.135Z,2.03
2017-11-25T00:29:43.875Z,2.25
2017-11-25T00:32:10.405Z,3.10
2017-11-25T00:34:36.830Z,2.83
2017-11-25T00:37:03.314Z,1.80
2017-11-25T00:39:29.722Z,1.70
2017-11-25T00:41:56.463Z,2.12
2017-11-25T00:44:23.719Z,2.15
2017-11-25T00:46:50.145Z,1.98
2017-11-25T00:49:16.595Z,2.83
2017-11-25T00:51:43.016Z,2.05
2017-11-25T00:54:09.415Z,1.95
2017-11-25T00:56:36.162Z,2.20
2017-11-25T00:59:02.572Z,2.65
2017-11-25T01:01:29.002Z,2.00
2017-11-25T01:03:55.476Z,2.10
2017-11-25T01:06:21.882Z,2.22
2017-11-25T01:08:48.343Z,4.15
2017-11-25T01:11:15.746Z,2.90
2017-11-25T01:13:42.204Z,3.05
2017-11-25T01:16:08.662Z,3.00
2017-11-25T01:18:35.266Z,3.35
2017-11-25T01:21:01.733Z,3.50
2017-11-25T01:23:28.256Z,3.75
2017-11-25T01:25:54.996Z,3.20
2017-11-25T01:28:21.438Z,3.10
2017-11-25T01:30:47.941Z,4.07
2017-11-25T01:33:14.523Z,3.95
2017-11-25T01:35:41.010Z,4.43
2017-11-25T01:38:07.512Z,5.03
2017-11-25T01:40:34.022Z,4.70
2017-11-25T01:43:01.270Z,3.47
2017-11-25T01:45:27.832Z,4.12
2017-11-25T01:47:55.094Z,4.30
2017-11-25T01:50:22.342Z,3.50
2017-11-25T01:52:49.611Z,4.22
2017-11-25T01:55:16.121Z,6.22
2017-11-25T01:57:42.670Z,5.12
2017-11-25T02:00:09.223Z,5.80
2017-11-25T02:02:35.722Z,5.87
2017-11-25T02:05:02.966Z,6.20
2017-11-25T02:07:30.187Z,5.35
2017-11-25T02:09:56.662Z,5.60
2017-11-25T02:12:23.889Z,5.55
2017-11-25T02:14:50.388Z,7.97
2017-11-25T02:17:16.906Z,6.32
2017-11-25T02:19:43.431Z,7.18
2017-11-25T02:22:10.680Z,6.90
2017-11-25T02:24:37.226Z,8.30
2017-11-25T02:27:03.722Z,7.35
2017-11-25T02:29:31.029Z,6.68
2017-11-25T02:31:57.565Z,6.97
2017-11-25T02:34:24.839Z,7.30
2017-11-25T02:36:51.358Z,7.32
2017-11-25T02:39:17.905Z,8.20
2017-11-25T02:41:44.446Z,9.00
2017-11-25T02:44:10.985Z,10.18
2017-11-25T02:46:37.521Z,8.82
2017-11-25T02:49:04.029Z,9.10
2017-11-25T02:51:30.590Z,8.43
2017-11-25T02:53:57.112Z,8.55
2017-11-25T02:56:23.725Z,8.05
2017-11-25T02:58:50.942Z,7.10
2017-11-25T03:01:18.170Z,6.45
2017-11-25T03:03:44.712Z,6.45
2017-11-25T03:06:11.195Z,6.65
2017-11-25T03:08:37.690Z,5.78
2017-11-25T03:11:05.249Z,4.80
2017-11-25T03:13:32.522Z,4.45
2017-11-25T03:15:59.742Z,4.05
2017-11-25T03:18:27.147Z,5.70
2017-11-25T03:20:53.649Z,4.30
2017-11-25T03:23:20.180Z,4.72
2017-11-25T03:25:46.641Z,5.30
2017-11-25T03:28:13.130Z,4.70
2017-11-25T03:30:39.656Z,5.07
2017-11-25T03:33:06.111Z,6.12
2017-11-25T03:35:32.638Z,5.15
2017-11-25T03:37:59.140Z,6.35
2017-11-25T03:40:25.941Z,6.60
2017-11-25T03:42:53.106Z,6.47
2017-11-25T03:45:20.294Z,7.47
2017-11-25T03:47:46.763Z,6.18
2017-11-25T03:50:13.219Z,6.50
2017-11-25T03:52:39.761Z,7.50
2017-11-25T03:55:06.273Z,6.07
2017-11-25T03:57:33.526Z,7.15
2017-11-25T04:00:00.887Z,5.60
2017-11-25T04:02:28.081Z,8.63
2017-11-25T04:04:54.547Z,8.52
2017-11-25T04:07:21.059Z,7.45
2017-11-25T04:09:47.531Z,8.90
2017-11-25T04:12:14.730Z,9.95
2017-11-25T04:14:41.290Z,8.80
2017-11-25T04:17:07.732Z,10.15
2017-11-25T04:19:34.189Z,11.02
2017-11-25T04:22:00.703Z,10.20
2017-11-25T04:24:27.946Z,12.07
2017-11-25T04:26:54.421Z,12.43
2017-11-25T04:29:21.858Z,12.00
2017-11-25T04:31:49.065Z,13.20
2017-11-25T04:34:15.557Z,13.50
2017-11-25T04:36:42.753Z,11.55
2017-11-25T04:39:09.191Z,12.63
2017-11-25T04:41:35.652Z,13.73
2017-11-25T04:44:02.887Z,12.13
2017-11-25T04:46:29.329Z,13.52
2017-11-25T04:48:56.079Z,16.23
2017-11-25T04:51:22.534Z,13.38
2017-11-25T04:53:49.031Z,13.48
2017-11-25T04:56:16.275Z,13.02
2017-11-25T04:58:42.790Z,14.85
2017-11-25T05:01:09.325Z,13.90
2017-11-25T05:03:35.834Z,13.57
2017-11-25T05:06:02.339Z,14.43
2017-11-25T05:08:28.860Z,11.20
2017-11-25T05:10:55.324Z,8.25
2017-11-25T05:13:22.069Z,5.32
2017-11-25T05:15:49.269Z,3.00
2017-11-25T05:18:15.736Z,2.40
2017-11-25T05:20:42.234Z,1.80
2017-11-25T05:23:08.683Z,1.42
2017-11-25T05:25:35.439Z,1.20
2017-11-25T05:28:02.684Z,0.57
2017-11-25T05:30:30.626Z,0.60
2017-11-25T05:32:57.096Z,1.87
2017-11-25T05:35:24.336Z,0.60
2017-11-25T05:37:50.837Z,0.50
2017-11-25T05:40:17.284Z,0.50
2017-11-25T05:42:43.771Z,0.60
2017-11-25T05:45:10.956Z,1.23
2017-11-25T05:47:37.404Z,0.50
2017-11-25T05:50:03.894Z,0.30
2017-11-25T05:52:30.344Z,2.67
2017-11-25T05:54:56.933Z,1.58
2017-11-25T05:57:23.388Z,0.55
2017-11-25T05:59:50.588Z,0.90
2017-11-25T06:02:17.257Z,0.40
2017-11-25T06:04:43.699Z,0.40
2017-11-25T06:07:10.130Z,0.77
2017-11-25T06:09:36.609Z,0.80
2017-11-25T06:12:03.061Z,0.80
2017-11-25T06:14:29.526Z,1.02
2017-11-25T06:16:56.014Z,0.50
2017-11-25T06:19:22.461Z,0.40
2017-11-25T06:21:48.981Z,0.52
2017-11-25T06:24:15.441Z,0.43
2017-11-25T06:26:41.924Z,0.40
2017-11-25T06:29:08.409Z,0.47
2017-11-25T06:31:34.862Z,0.50
2017-11-25T06:34:02.103Z,1.27
2017-11-25T06:36:28.609Z,1.20
2017-11-25T06:38:55.075Z,1.83
2017-11-25T06:41:22.545Z,0.70
2017-11-25T06:43:49.767Z,0.75
2017-11-25T06:46:16.236Z,0.30
2017-11-25T06:48:43.441Z,0.40
2017-11-25T06:51:09.915Z,0.40
2017-11-25T06:53:36.442Z,0.40
2017-11-25T06:56:02.915Z,0.77
2017-11-25T06:58:29.378Z,0.70
2017-11-25T07:00:55.944Z,0.45
2017-11-25T07:03:22.407Z,0.77
2017-11-25T07:05:49.676Z,0.40
2017-11-25T07:08:16.141Z,0.50
2017-11-25T07:10:42.626Z,0.40
2017-11-25T07:13:09.834Z,0.50
2017-11-25T07:15:36.333Z,0.82
2017-11-25T07:18:02.868Z,0.50
2017-11-25T07:20:29.371Z,1.60
2017-11-25T07:22:55.842Z,2.15
2017-11-25T07:25:22.359Z,0.50
2017-11-25T07:27:48.849Z,0.60
2017-11-25T07:30:15.354Z,0.75
2017-11-25T07:32:41.859Z,0.68
2017-11-25T07:35:08.322Z,0.98
2017-11-25T07:37:34.826Z,0.40
2017-11-25T07:40:01.302Z,0.50
2017-11-25T07:42:27.796Z,0.40
2017-11-25T07:44:54.312Z,2.22
2017-11-25T07:47:21.556Z,1.65
2017-11-25T07:49:49.052Z,1.15
2017-11-25T07:52:15.543Z,0.70
2017-11-25T07:54:42.776Z,0.60
2017-11-25T07:57:09.307Z,0.77
2017-11-25T07:59:35.779Z,0.65
2017-11-25T08:02:02.291Z,0.70
2017-11-25T08:04:28.750Z,0.75
2017-11-25T08:06:56.027Z,0.93
2017-11-25T08:09:22.497Z,1.40
2017-11-25T08:11:48.944Z,1.10
2017-11-25T08:14:15.434Z,0.50
2017-11-25T08:16:41.928Z,0.57
2017-11-25T08:19:08.366Z,0.75
2017-11-25T08:21:35.766Z,0.70
2017-11-25T08:24:02.217Z,0.35
2017-11-25T08:26:28.643Z,0.40
2017-11-25T08:28:55.111Z,0.60
2017-11-25T08:31:21.523Z,1.10
2017-11-25T08:33:47.975Z,0.40
2017-11-25T08:36:14.440Z,0.40
2017-11-25T08:38:40.883Z,1.08
2017-11-25T08:41:07.431Z,0.40
2017-11-25T08:43:33.851Z,0.57
2017-11-25T08:46:00.408Z,3.03
2017-11-25T08:48:26.865Z,6.60
2017-11-25T08:50:53.300Z,7.87
2017-11-25T08:53:19.836Z,3.95
2017-11-25T08:55:47.011Z,5.80
2017-11-25T08:58:14.223Z,15.40
2017-11-25T09:00:41.450Z,23.92
2017-11-25T09:03:07.850Z,20.52
2017-11-25T09:05:34.653Z,22.98
2017-11-25T09:08:01.102Z,17.15
2017-11-25T09:10:27.552Z,1.60
2017-11-25T09:12:54.334Z,0.90
2017-11-25T09:15:20.749Z,1.30
2017-11-25T09:17:47.161Z,0.70
2017-11-25T09:20:14.534Z,1.23
2017-11-25T09:22:40.962Z,0.60
2017-11-25T09:25:07.377Z,0.80
2017-11-25T09:27:34.775Z,0.50
2017-11-25T09:30:01.249Z,0.68
2017-11-25T09:32:27.694Z,2.58
2017-11-25T09:34:54.913Z,1.48
2017-11-25T09:37:21.418Z,0.80
2017-11-25T09:39:47.882Z,0.60
2017-11-25T09:42:14.338Z,1.55
2017-11-25T09:44:41.038Z,0.85
2017-11-25T09:47:07.555Z,0.77
2017-11-25T09:49:34.063Z,0.82
2017-11-25T09:52:01.334Z,2.05
2017-11-25T09:54:27.768Z,1.00
2017-11-25T09:56:54.248Z,0.82
2017-11-25T09:59:20.730Z,0.73
2017-11-25T10:01:47.390Z,0.80
2017-11-25T10:04:13.831Z,0.60
2017-11-25T10:06:40.303Z,0.60
2017-11-25T10:09:06.883Z,2.83
2017-11-25T10:11:33.298Z,1.40
2017-11-25T10:14:00.471Z,0.40
2017-11-25T10:16:26.933Z,2.20
2017-11-25T10:18:53.403Z,3.25
2017-11-25T10:21:20.930Z,0.50
2017-11-25T10:23:47.464Z,1.15
2017-11-25T10:26:13.907Z,0.62
2017-11-25T10:28:40.364Z,0.60
2017-11-25T10:31:06.817Z,0.70
2017-11-25T10:33:33.612Z,0.65
2017-11-25T10:36:00.043Z,0.60
2017-11-25T10:38:26.546Z,0.45
2017-11-25T10:40:53.141Z,0.82
2017-11-25T10:43:19.611Z,0.93
2017-11-25T10:45:46.118Z,0.70
2017-11-25T10:48:12.555Z,1.12
2017-11-25T10:50:39.053Z,0.60
2017-11-25T10:53:05.553Z,0.60
2017-11-25T10:55:32.068Z,0.77
2017-11-25T10:57:58.647Z,0.55
2017-11-25T11:00:25.167Z,0.60
2017-11-25T11:02:51.622Z,0.80
2017-11-25T11:05:18.087Z,0.62
2017-11-25T11:07:45.489Z,1.10
2017-11-25T11:10:11.950Z,1.45
2017-11-25T11:12:38.393Z,0.80
2017-11-25T11:15:05.611Z,1.00
2017-11-25T11:17:32.064Z,1.08
2017-11-25T11:19:58.504Z,1.40
2017-11-25T11:22:25.115Z,1.40
2017-11-25T11:24:51.560Z,1.20
2017-11-25T11:27:18.070Z,1.20
2017-11-25T11:29:44.532Z,1.12
2017-11-25T11:32:10.960Z,1.30
2017-11-25T11:34:37.389Z,1.20
2017-11-25T11:37:04.819Z,1.30
2017-11-25T11:39:31.293Z,1.45
2017-11-25T11:41:58.523Z,1.40
2017-11-25T11:44:24.978Z,2.33
2017-11-25T11:46:51.411Z,1.80
2017-11-25T11:49:17.842Z,1.05
2017-11-25T11:51:44.558Z,2.12
2017-11-25T11:54:11.030Z,1.92
2017-11-25T11:56:38.186Z,1.58
2017-11-25T11:59:04.646Z,1.50
2017-11-25T12:01:31.130Z,2.15
2017-11-25T12:03:58.365Z,1.23
2017-11-25T12:06:24.924Z,1.45
2017-11-25T12:08:52.147Z,1.20
2017-11-25T12:11:18.809Z,2.33
2017-11-25T12:13:45.259Z,0.80
2017-11-25T12:16:11.733Z,1.30
2017-11-25T12:18:38.147Z,0.95
2017-11-25T12:21:04.639Z,1.87
2017-11-25T12:23:31.080Z,3.75
2017-11-25T12:25:57.516Z,1.55
2017-11-25T12:28:23.921Z,1.37
2017-11-25T12:30:50.489Z,1.73
2017-11-25T12:33:16.910Z,1.85
2017-11-25T12:35:43.339Z,1.27
2017-11-25T12:38:09.899Z,1.30
2017-11-25T12:40:37.047Z,0.90
2017-11-25T12:43:04.215Z,1.10
2017-11-25T12:45:30.753Z,1.20
2017-11-25T12:47:57.196Z,0.93
2017-11-25T12:50:23.646Z,0.73
2017-11-25T12:52:50.247Z,1.55
2017-11-25T12:55:17.403Z,0.85
2017-11-25T12:57:43.871Z,0.70
2017-11-25T13:00:10.622Z,0.98
2017-11-25T13:02:37.080Z,1.10
2017-11-25T13:05:03.532Z,1.10
2017-11-25T13:07:30.730Z,1.10
2017-11-25T13:09:57.170Z,1.20
2017-11-25T13:12:23.570Z,1.00
2017-11-25T13:14:50.016Z,1.20
2017-11-25T13:17:16.439Z,1.05
2017-11-25T13:19:43.005Z,0.95
2017-11-25T13:22:09.414Z,0.88
2017-11-25T13:24:35.828Z,1.00
2017-11-25T13:27:02.270Z,2.03
2017-11-25T13:29:28.671Z,1.23
2017-11-25T13:31:55.877Z,2.10
2017-11-25T13:34:22.451Z,1.90
2017-11-25T13:36:48.987Z,2.30
2017-11-25T13:39:16.154Z,3.53
2017-11-25T13:41:43.349Z,2.87
2017-11-25T13:44:09.808Z,1.80
2017-11-25T13:46:36.414Z,2.20
2017-11-25T13:49:02.856Z,1.27
2017-11-25T13:51:29.317Z,1.02
2017-11-25T13:53:56.576Z,1.15
2017-11-25T13:56:23.771Z,1.70
2017-11-25T13:58:50.235Z,1.70
2017-11-25T14:01:16.650Z,1.00
2017-11-25T14:03:43.093Z,0.95
2017-11-25T14:06:09.692Z,1.02
2017-11-25T14:08:36.246Z,0.98
2017-11-25T14:11:02.751Z,1.10
2017-11-25T14:13:29.251Z,0.95
2017-11-25T14:15:56.443Z,2.80
2017-11-25T14:18:23.742Z,1.42
2017-11-25T14:20:50.991Z,1.20
2017-11-25T14:23:17.472Z,2.70
2017-11-25T14:25:44.108Z,1.05
2017-11-25T14:28:10.614Z,1.12
2017-11-25T14:30:37.818Z,1.20
2017-11-25T14:33:05.507Z,1.17
2017-11-25T14:35:31.987Z,1.80
2017-11-25T14:37:58.460Z,1.42
2017-11-25T14:40:24.941Z,1.25
2017-11-25T14:42:52.142Z,1.45
2017-11-25T14:45:18.738Z,1.60
2017-11-25T14:47:45.524Z,2.33
2017-11-25T14:50:12.065Z,2.62
2017-11-25T14:52:38.510Z,1.40
2017-11-25T14:55:05.130Z,0.80
2017-11-25T14:57:31.610Z,2.20
2017-11-25T14:59:58.070Z,1.62
2017-11-25T15:02:24.756Z,2.35
2017-11-25T15:04:51.231Z,1.17
2017-11-25T15:07:18.389Z,1.25
2017-11-25T15:09:45.651Z,0.80
2017-11-25T15:12:12.090Z,1.02
2017-11-25T15:14:38.681Z,1.73
2017-11-25T15:17:05.213Z,1.52
2017-11-25T15:19:32.471Z,0.70
2017-11-25T15:21:59.686Z,0.70
2017-11-25T15:24:26.114Z,4.85
2017-11-25T15:26:53.374Z,0.98
2017-11-25T15:29:20.061Z,2.42
2017-11-25T15:31:46.625Z,3.37
2017-11-25T15:34:13.141Z,1.35
2017-11-25T15:36:39.622Z,1.50
2017-11-25T15:39:06.112Z,1.65
2017-11-25T15:41:32.897Z,2.90
2017-11-25T15:43:59.335Z,3.12
2017-11-25T15:46:25.802Z,3.17
2017-11-25T15:48:53.321Z,2.05
2017-11-25T15:51:19.828Z,1.60
2017-11-25T15:53:47.064Z,2.80
2017-11-25T15:56:13.878Z,2.55
2017-11-25T15:58:40.424Z,2.62
2017-11-25T16:01:07.586Z,1.80
2017-11-25T16:03:34.066Z,2.30
2017-11-25T16:06:00.557Z,1.45
2017-11-25T16:08:27.010Z,1.75
2017-11-25T16:10:54.214Z,1.08
2017-11-25T16:13:21.407Z,1.60
2017-11-25T16:15:48.810Z,1.48
2017-11-25T16:18:16.017Z,1.40
2017-11-25T16:20:42.495Z,1.65
2017-11-25T16:23:09.308Z,1.87
2017-11-25T16:25:35.794Z,2.30
2017-11-25T16:28:03.015Z,2.00
2017-11-25T16:30:30.556Z,2.45
2017-11-25T16:32:56.999Z,1.85
2017-11-25T16:35:24.399Z,3.55
2017-11-25T16:37:50.931Z,2.10
2017-11-25T16:40:17.367Z,1.80
2017-11-25T16:42:43.882Z,2.08
2017-11-25T16:45:11.086Z,2.08
2017-11-25T16:47:37.544Z,1.45
2017-11-25T16:50:04.776Z,2.60
2017-11-25T16:52:31.217Z,6.62
2017-11-25T16:54:58.442Z,5.40
2017-11-25T16:57:24.859Z,2.85
2017-11-25T16:59:51.369Z,1.60
2017-11-25T17:02:17.899Z,1.90
2017-11-25T17:04:44.330Z,2.65
2017-11-25T17:07:10.771Z,2.55
2017-11-25T17:09:37.191Z,1.45
2017-11-25T17:12:03.784Z,2.47
2017-11-25T17:14:30.214Z,2.75
2017-11-25T17:16:56.621Z,1.83
2017-11-25T17:19:23.750Z,2.58
2017-11-25T17:21:50.551Z,3.95
2017-11-25T17:24:17.019Z,2.40
2017-11-25T17:26:43.521Z,3.17
2017-11-25T17:29:10.216Z,3.55
2017-11-25T17:31:37.407Z,2.47
2017-11-25T17:34:03.859Z,3.37
2017-11-25T17:36:30.465Z,3.45
2017-11-25T17:38:56.923Z,2.80
2017-11-25T17:41:23.336Z,6.78
2017-11-25T17:43:49.998Z,2.40
2017-11-25T17:46:16.409Z,1.70
2017-11-25T17:48:42.823Z,1.65
2017-11-25T17:51:10.040Z,2.30
2017-11-25T17:53:36.458Z,2.15
2017-11-25T17:56:03.181Z,2.97
2017-11-25T17:58:29.630Z,3.65
2017-11-25T18:00:56.842Z,3.87
2017-11-25T18:03:23.422Z,6.57
2017-11-25T18:05:49.861Z,3.62
2017-11-25T18:08:16.295Z,4.03
2017-11-25T18:10:42.742Z,4.32
2017-11-25T18:13:09.209Z,5.80
2017-11-25T18:15:35.855Z,14.00
2017-11-25T18:18:02.275Z,9.40
2017-11-25T18:20:28.717Z,16.92
2017-11-25T18:22:55.170Z,4.80
2017-11-25T18:25:21.578Z,3.05
2017-11-25T18:27:48.022Z,2.72
2017-11-25T18:30:14.494Z,3.55
2017-11-25T18:32:41.674Z,2.58
2017-11-25T18:35:08.105Z,2.30
2017-11-25T18:37:34.699Z,4.03
2017-11-25T18:40:01.192Z,4.00
2017-11-25T18:42:27.655Z,6.65
2017-11-25T18:44:54.154Z,6.18
2017-11-25T18:47:20.572Z,7.62
2017-11-25T18:49:47.722Z,20.75
2017-11-25T18:52:14.296Z,13.85
2017-11-25T18:54:40.734Z,7.37
2017-11-25T18:57:07.204Z,5.55
2017-11-25T18:59:33.702Z,5.72
2017-11-25T19:02:00.135Z,14.43
2017-11-25T19:04:26.726Z,7.62
2017-11-25T19:06:53.930Z,11.63
2017-11-25T19:09:20.484Z,21.75
2017-11-25T19:11:47.182Z,13.18
2017-11-25T19:14:13.672Z,11.07
2017-11-25T19:16:40.125Z,8.73
2017-11-25T19:19:06.792Z,7.65
2017-11-25T19:21:33.269Z,5.72
2017-11-25T19:24:00.444Z,3.50
2017-11-25T19:26:27.664Z,4.62
2017-11-25T19:28:54.896Z,20.33
2017-11-25T19:31:22.122Z,26.85
2017-11-25T19:33:48.575Z,35.17
2017-11-25T19:36:15.026Z,26.70
2017-11-25T19:38:41.471Z,21.85
2017-11-25T19:41:07.968Z,19.08
2017-11-25T19:43:34.424Z,16.20
2017-11-25T19:46:00.908Z,8.82
2017-11-25T19:48:27.384Z,7.18
2017-11-25T19:50:55.259Z,5.05
2017-11-25T19:53:21.819Z,3.95
2017-11-25T19:55:49.006Z,2.90
2017-11-25T19:58:15.424Z,5.68
2017-11-25T20:00:41.982Z,5.93
2017-11-25T20:03:08.429Z,4.70
2017-11-25T20:05:34.889Z,5.22
2017-11-25T20:08:01.394Z,4.47
2017-11-25T20:10:27.819Z,3.92
2017-11-25T20:12:54.253Z,3.47
2017-11-25T20:15:20.698Z,3.83
2017-11-25T20:17:47.099Z,3.55
2017-11-25T20:20:13.908Z,4.20
2017-11-25T20:22:41.097Z,3.87
2017-11-25T20:25:07.521Z,4.05
2017-11-25T20:27:34.033Z,4.20
2017-11-25T20:30:01.221Z,4.47
2017-11-25T20:32:27.690Z,5.50
2017-11-25T20:34:54.108Z,5.55
2017-11-25T20:37:20.539Z,4.30
2017-11-25T20:39:46.998Z,4.32
2017-11-25T20:42:13.402Z,5.00
2017-11-25T20:44:40.078Z,3.95
2017-11-25T20:47:06.487Z,6.40
2017-11-25T20:49:32.923Z,5.75
2017-11-25T20:51:59.366Z,4.60
2017-11-25T20:54:25.879Z,4.78
2017-11-25T20:56:52.309Z,5.03
2017-11-25T20:59:18.782Z,4.78
2017-11-25T21:01:45.975Z,5.40
2017-11-25T21:04:12.392Z,6.22
2017-11-25T21:06:39.005Z,5.50
2017-11-25T21:09:06.177Z,4.82
2017-11-25T21:11:32.618Z,6.05
2017-11-25T21:13:59.078Z,6.28
2017-11-25T21:16:25.569Z,6.57
2017-11-25T21:18:52.010Z,5.07
2017-11-25T21:21:18.449Z,5.85
2017-11-25T21:23:44.891Z,5.57
2017-11-25T21:26:11.608Z,4.75
2017-11-25T21:28:38.049Z,5.37
2017-11-25T21:31:04.487Z,6.03
2017-11-25T21:33:30.952Z,8.13
2017-11-25T21:35:57.386Z,8.30
2017-11-25T21:38:23.876Z,8.18
2017-11-25T21:40:50.363Z,7.95
2017-11-25T21:43:16.800Z,5.37
2017-11-25T21:45:43.449Z,7.72
2017-11-25T21:48:10.636Z,6.00
2017-11-25T21:50:37.393Z,5.10
2017-11-25T21:53:03.811Z,5.00
2017-11-25T21:55:30.239Z,6.35
2017-11-25T21:57:56.711Z,5.40
2017-11-25T22:00:23.155Z,6.75
2017-11-25T22:02:50.786Z,5.70
2017-11-25T22:05:17.248Z,7.00
2017-11-25T22:07:44.466Z,7.60
2017-11-25T22:10:10.935Z,5.55
2017-11-25T22:12:37.472Z,7.75
2017-11-25T22:15:04.020Z,7.60
2017-11-25T22:17:30.511Z,5.45
2017-11-25T22:19:57.179Z,6.40
2017-11-25T22:22:23.652Z,5.53
2017-11-25T22:24:50.816Z,5.97
2017-11-25T22:27:17.308Z,8.70
2017-11-25T22:29:43.784Z,10.57
2017-11-25T22:32:10.271Z,11.25
2017-11-25T22:34:36.748Z,7.47
2017-11-25T22:37:03.223Z,5.60
2017-11-25T22:39:29.724Z,6.95
2017-11-25T22:41:56.178Z,6.32
2017-11-25T22:44:22.643Z,4.82
2017-11-25T22:46:49.817Z,5.10
2017-11-25T22:49:16.989Z,5.20
2017-11-25T22:51:43.467Z,5.70
2017-11-25T22:54:09.876Z,4.80
2017-11-25T22:56:36.302Z,5.45
2017-11-25T22:59:03.051Z,5.40
2017-11-25T23:01:29.489Z,5.30
2017-11-25T23:03:55.924Z,5.97
2017-11-25T23:06:22.646Z,5.90
2017-11-25T23:08:49.157Z,4.55
2017-11-25T23:11:16.288Z,2.70
2017-11-25T23:13:43.517Z,3.00
2017-11-25T23:16:10.004Z,3.00
2017-11-25T23:18:36.466Z,2.87
2017-11-25T23:21:02.898Z,2.95
2017-11-25T23:23:29.326Z,2.22
2017-11-25T23:25:55.769Z,3.75
2017-11-25T23:28:22.201Z,3.53
2017-11-25T23:30:48.620Z,3.17
2017-11-25T23:33:15.051Z,4.05
2017-11-25T23:35:41.547Z,3.87
2017-11-25T23:38:08.702Z,3.10
2017-11-25T23:40:35.202Z,2.22
2017-11-25T23:43:02.383Z,1.50
2017-11-25T23:45:29.580Z,1.80
2017-11-25T23:47:56.035Z,1.45
2017-11-25T23:50:22.467Z,1.25
2017-11-25T23:52:48.902Z,0.98
2017-11-25T23:55:15.354Z,0.82
2017-11-25T23:57:42.545Z,1.00
